sensor_id;sensor_type;location;lat;lon;timestamp;temperature;humidity
5280;DHT22;2663;53.588;10.010;2022-12-10T00:02:07;2.60;99.90
5280;DHT22;2663;53.588;10.010;2022-12-10T00:04:34;2.70;99.90
5280;DHT22;2663;53.588;10.010;2022-12-10T00:07:00;2.10;99.90
5280;DHT22;2663;53.588;10.010;2022-12-10T00:09:27;2.70;99.90
5280;DHT22;2663;53.588;10.010;2022-12-10T00:11:54;2.70;99.90
5280;DHT22;2663;53.588;10.010;2022-12-10T00:14:20;2.70;99.90
5280;DHT22;2663;53.588;10.010;2022-12-10T00:16:47;2.60;99.90
5280;DHT22;2663;53.588;10.010;2022-12-10T00:19:14;2.60;99.90
5280;DHT22;2663;53.588;10.010;2022-12-10T00:21:43;2.70;99.90
5280;DHT22;2663;53.588;10.010;2022-12-10T00:24:10;2.70;99.90
5280;DHT22;2663;53.588;10.010;2022-12-10T00:26:38;2.80;99.90
5280;DHT22;2663;53.588;10.010;2022-12-10T00:29:08;2.80;99.90
5280;DHT22;2663;53.588;10.010;2022-12-10T00:31:37;2.80;99.90
5280;DHT22;2663;53.588;10.010;2022-12-10T00:34:06;2.70;99.90
5280;DHT22;2663;53.588;10.010;2022-12-10T00:36:41;2.80;99.90
5280;DHT22;2663;53.588;10.010;2022-12-10T00:39:09;2.70;99.90
5280;DHT22;2663;53.588;10.010;2022-12-10T00:41:37;2.80;99.90
5280;DHT22;2663;53.588;10.010;2022-12-10T00:44:04;2.70;99.90
5280;DHT22;2663;53.588;10.010;2022-12-10T00:46:31;2.70;99.90
5280;DHT22;2663;53.588;10.010;2022-12-10T00:48:58;2.60;99.90
5280;DHT22;2663;53.588;10.010;2022-12-10T00:51:26;2.60;99.90
5280;DHT22;2663;53.588;10.010;2022-12-10T00:53:55;2.60;99.90
5280;DHT22;2663;53.588;10.010;2022-12-10T00:56:27;2.60;99.90
5280;DHT22;2663;53.588;10.010;2022-12-10T00:58:55;2.50;99.90
5280;DHT22;2663;53.588;10.010;2022-12-10T01:01:32;2.40;99.90
5280;DHT22;2663;53.588;10.010;2022-12-10T01:04:02;2.50;99.90
5280;DHT22;2663;53.588;10.010;2022-12-10T01:06:34;2.50;99.90
5280;DHT22;2663;53.588;10.010;2022-12-10T01:09:04;2.60;99.90
5280;DHT22;2663;53.588;10.010;2022-12-10T01:11:37;2.40;99.90
5280;DHT22;2663;53.588;10.010;2022-12-10T01:14:05;2.40;99.90
5280;DHT22;2663;53.588;10.010;2022-12-10T01:16:32;2.50;99.90
5280;DHT22;2663;53.588;10.010;2022-12-10T01:18:58;2.30;99.90
5280;DHT22;2663;53.588;10.010;2022-12-10T01:21:27;2.30;99.90
5280;DHT22;2663;53.588;10.010;2022-12-10T01:23:54;2.40;99.90
5280;DHT22;2663;53.588;10.010;2022-12-10T01:26:23;2.60;99.90
5280;DHT22;2663;53.588;10.010;2022-12-10T01:28:51;2.60;99.90
5280;DHT22;2663;53.588;10.010;2022-12-10T01:31:23;2.60;99.90
5280;DHT22;2663;53.588;10.010;2022-12-10T01:33:50;3.50;99.90
5280;DHT22;2663;53.588;10.010;2022-12-10T01:36:25;2.50;99.90
5280;DHT22;2663;53.588;10.010;2022-12-10T01:38:52;2.50;99.90
5280;DHT22;2663;53.588;10.010;2022-12-10T01:41:33;2.50;99.90
5280;DHT22;2663;53.588;10.010;2022-12-10T01:44:02;2.40;99.90
5280;DHT22;2663;53.588;10.010;2022-12-10T01:46:34;2.50;99.90
5280;DHT22;2663;53.588;10.010;2022-12-10T01:49:05;2.50;99.90
5280;DHT22;2663;53.588;10.010;2022-12-10T01:51:35;2.60;99.90
5280;DHT22;2663;53.588;10.010;2022-12-10T01:54:05;2.40;99.90
5280;DHT22;2663;53.588;10.010;2022-12-10T01:56:36;2.40;99.90
5280;DHT22;2663;53.588;10.010;2022-12-10T01:59:05;2.40;99.90
5280;DHT22;2663;53.588;10.010;2022-12-10T02:01:44;2.50;99.90
5280;DHT22;2663;53.588;10.010;2022-12-10T02:04:44;2.50;99.90
5280;DHT22;2663;53.588;10.010;2022-12-10T02:07:20;2.50;99.90
5280;DHT22;2663;53.588;10.010;2022-12-10T02:10:22;2.50;99.90
5280;DHT22;2663;53.588;10.010;2022-12-10T02:13:29;2.50;99.90
5280;DHT22;2663;53.588;10.010;2022-12-10T02:16:04;2.60;99.90
5280;DHT22;2663;53.588;10.010;2022-12-10T02:18:46;2.60;99.90
5280;DHT22;2663;53.588;10.010;2022-12-10T02:21:41;2.60;99.90
5280;DHT22;2663;53.588;10.010;2022-12-10T02:24:11;2.60;99.90
5280;DHT22;2663;53.588;10.010;2022-12-10T02:29:28;2.60;99.90
5280;DHT22;2663;53.588;10.010;2022-12-10T02:32:17;2.50;99.90
5280;DHT22;2663;53.588;10.010;2022-12-10T02:34:50;2.50;99.90
5280;DHT22;2663;53.588;10.010;2022-12-10T02:37:22;2.50;99.90
5280;DHT22;2663;53.588;10.010;2022-12-10T02:39:53;2.40;99.90
5280;DHT22;2663;53.588;10.010;2022-12-10T02:42:22;2.40;99.90
5280;DHT22;2663;53.588;10.010;2022-12-10T02:44:52;2.40;99.90
5280;DHT22;2663;53.588;10.010;2022-12-10T02:47:20;2.50;99.90
5280;DHT22;2663;53.588;10.010;2022-12-10T02:49:48;2.60;99.90
5280;DHT22;2663;53.588;10.010;2022-12-10T02:52:19;2.60;99.90
5280;DHT22;2663;53.588;10.010;2022-12-10T02:54:49;2.60;99.90
5280;DHT22;2663;53.588;10.010;2022-12-10T02:57:29;2.60;99.90
5280;DHT22;2663;53.588;10.010;2022-12-10T03:00:17;2.60;99.90
5280;DHT22;2663;53.588;10.010;2022-12-10T03:03:06;2.50;99.90
5280;DHT22;2663;53.588;10.010;2022-12-10T03:05:59;2.60;99.90
5280;DHT22;2663;53.588;10.010;2022-12-10T03:11:12;2.60;99.90
5280;DHT22;2663;53.588;10.010;2022-12-10T03:16:49;2.60;99.90
5280;DHT22;2663;53.588;10.010;2022-12-10T03:19:21;2.70;99.90
5280;DHT22;2663;53.588;10.010;2022-12-10T03:21:51;2.60;99.90
5280;DHT22;2663;53.588;10.010;2022-12-10T03:24:20;2.60;99.90
5280;DHT22;2663;53.588;10.010;2022-12-10T03:26:50;2.60;99.90
5280;DHT22;2663;53.588;10.010;2022-12-10T03:29:21;2.60;99.90
5280;DHT22;2663;53.588;10.010;2022-12-10T03:31:49;2.70;99.90
5280;DHT22;2663;53.588;10.010;2022-12-10T03:34:17;2.70;99.90
5280;DHT22;2663;53.588;10.010;2022-12-10T03:36:44;2.80;99.90
5280;DHT22;2663;53.588;10.010;2022-12-10T03:39:11;2.70;99.90
5280;DHT22;2663;53.588;10.010;2022-12-10T03:41:39;2.70;99.90
5280;DHT22;2663;53.588;10.010;2022-12-10T03:44:05;2.70;99.90
5280;DHT22;2663;53.588;10.010;2022-12-10T03:46:32;2.70;99.90
5280;DHT22;2663;53.588;10.010;2022-12-10T03:49:00;2.70;99.90
5280;DHT22;2663;53.588;10.010;2022-12-10T03:51:27;2.70;99.90
5280;DHT22;2663;53.588;10.010;2022-12-10T03:53:54;2.60;99.90
5280;DHT22;2663;53.588;10.010;2022-12-10T03:56:21;2.60;99.90
5280;DHT22;2663;53.588;10.010;2022-12-10T03:58:48;2.60;99.90
5280;DHT22;2663;53.588;10.010;2022-12-10T04:01:15;2.70;99.90
5280;DHT22;2663;53.588;10.010;2022-12-10T04:03:42;2.70;99.90
5280;DHT22;2663;53.588;10.010;2022-12-10T04:06:13;2.70;99.90
5280;DHT22;2663;53.588;10.010;2022-12-10T04:08:40;2.70;99.90
5280;DHT22;2663;53.588;10.010;2022-12-10T04:11:09;2.80;99.90
5280;DHT22;2663;53.588;10.010;2022-12-10T04:13:37;2.70;99.90
5280;DHT22;2663;53.588;10.010;2022-12-10T04:16:23;2.40;99.90
5280;DHT22;2663;53.588;10.010;2022-12-10T04:18:55;2.40;99.90
5280;DHT22;2663;53.588;10.010;2022-12-10T04:21:28;2.40;99.90
5280;DHT22;2663;53.588;10.010;2022-12-10T04:24:14;2.40;99.90
5280;DHT22;2663;53.588;10.010;2022-12-10T04:27:03;2.50;99.90
5280;DHT22;2663;53.588;10.010;2022-12-10T04:29:31;2.70;99.90
5280;DHT22;2663;53.588;10.010;2022-12-10T04:31:58;2.70;99.90
5280;DHT22;2663;53.588;10.010;2022-12-10T04:34:25;2.70;99.90
5280;DHT22;2663;53.588;10.010;2022-12-10T04:36:52;1.90;99.90
5280;DHT22;2663;53.588;10.010;2022-12-10T04:39:19;2.80;99.90
5280;DHT22;2663;53.588;10.010;2022-12-10T04:41:47;2.70;99.90
5280;DHT22;2663;53.588;10.010;2022-12-10T04:44:15;2.00;99.90
5280;DHT22;2663;53.588;10.010;2022-12-10T04:46:41;2.60;99.90
5280;DHT22;2663;53.588;10.010;2022-12-10T04:49:08;2.60;99.90
5280;DHT22;2663;53.588;10.010;2022-12-10T04:51:35;2.60;99.90
5280;DHT22;2663;53.588;10.010;2022-12-10T04:54:02;2.60;99.90
5280;DHT22;2663;53.588;10.010;2022-12-10T04:56:30;2.60;99.90
5280;DHT22;2663;53.588;10.010;2022-12-10T04:58:57;2.70;99.90
5280;DHT22;2663;53.588;10.010;2022-12-10T05:01:26;2.70;99.90
5280;DHT22;2663;53.588;10.010;2022-12-10T05:03:53;2.60;99.90
5280;DHT22;2663;53.588;10.010;2022-12-10T05:06:21;2.60;99.90
5280;DHT22;2663;53.588;10.010;2022-12-10T05:08:47;2.60;99.90
5280;DHT22;2663;53.588;10.010;2022-12-10T05:11:18;2.40;99.90
5280;DHT22;2663;53.588;10.010;2022-12-10T05:13:46;2.50;99.90
5280;DHT22;2663;53.588;10.010;2022-12-10T05:16:15;2.60;99.90
5280;DHT22;2663;53.588;10.010;2022-12-10T05:18:43;2.50;99.90
5280;DHT22;2663;53.588;10.010;2022-12-10T05:21:12;2.40;99.90
5280;DHT22;2663;53.588;10.010;2022-12-10T05:23:42;2.50;99.90
5280;DHT22;2663;53.588;10.010;2022-12-10T05:26:10;2.60;99.90
5280;DHT22;2663;53.588;10.010;2022-12-10T05:28:45;2.60;99.90
5280;DHT22;2663;53.588;10.010;2022-12-10T05:31:23;2.70;99.90
5280;DHT22;2663;53.588;10.010;2022-12-10T05:33:51;2.60;99.90
5280;DHT22;2663;53.588;10.010;2022-12-10T05:36:22;2.60;99.90
5280;DHT22;2663;53.588;10.010;2022-12-10T05:38:49;2.60;99.90
5280;DHT22;2663;53.588;10.010;2022-12-10T05:41:21;2.40;99.90
5280;DHT22;2663;53.588;10.010;2022-12-10T05:43:48;2.50;99.90
5280;DHT22;2663;53.588;10.010;2022-12-10T05:46:21;2.50;99.90
5280;DHT22;2663;53.588;10.010;2022-12-10T05:48:49;2.50;99.90
5280;DHT22;2663;53.588;10.010;2022-12-10T05:51:21;2.60;99.90
5280;DHT22;2663;53.588;10.010;2022-12-10T05:53:51;2.60;99.90
5280;DHT22;2663;53.588;10.010;2022-12-10T05:56:20;2.60;99.90
5280;DHT22;2663;53.588;10.010;2022-12-10T05:58:48;2.60;99.90
5280;DHT22;2663;53.588;10.010;2022-12-10T06:01:21;2.50;99.90
5280;DHT22;2663;53.588;10.010;2022-12-10T06:03:49;2.50;99.90
5280;DHT22;2663;53.588;10.010;2022-12-10T06:06:22;2.50;99.90
5280;DHT22;2663;53.588;10.010;2022-12-10T06:08:50;2.50;99.90
5280;DHT22;2663;53.588;10.010;2022-12-10T06:11:17;2.60;99.90
5280;DHT22;2663;53.588;10.010;2022-12-10T06:13:43;2.40;99.90
5280;DHT22;2663;53.588;10.010;2022-12-10T06:16:15;2.40;99.90
5280;DHT22;2663;53.588;10.010;2022-12-10T06:18:42;2.60;99.90
5280;DHT22;2663;53.588;10.010;2022-12-10T06:21:12;2.70;99.90
5280;DHT22;2663;53.588;10.010;2022-12-10T06:23:40;2.60;99.90
5280;DHT22;2663;53.588;10.010;2022-12-10T06:26:09;2.60;99.90
5280;DHT22;2663;53.588;10.010;2022-12-10T06:28:37;2.60;99.90
5280;DHT22;2663;53.588;10.010;2022-12-10T06:31:04;2.60;99.90
5280;DHT22;2663;53.588;10.010;2022-12-10T06:33:31;2.50;99.90
5280;DHT22;2663;53.588;10.010;2022-12-10T06:35:58;2.50;99.90
5280;DHT22;2663;53.588;10.010;2022-12-10T06:38:24;2.40;99.90
5280;DHT22;2663;53.588;10.010;2022-12-10T06:40:51;2.50;99.90
5280;DHT22;2663;53.588;10.010;2022-12-10T06:43:19;2.30;99.90
5280;DHT22;2663;53.588;10.010;2022-12-10T06:45:45;2.30;99.90
5280;DHT22;2663;53.588;10.010;2022-12-10T06:48:12;2.40;99.90
5280;DHT22;2663;53.588;10.010;2022-12-10T06:50:39;2.40;99.90
5280;DHT22;2663;53.588;10.010;2022-12-10T06:53:05;2.50;99.90
5280;DHT22;2663;53.588;10.010;2022-12-10T06:55:32;2.30;99.90
5280;DHT22;2663;53.588;10.010;2022-12-10T06:57:59;2.40;99.90
5280;DHT22;2663;53.588;10.010;2022-12-10T07:00:25;2.30;99.90
5280;DHT22;2663;53.588;10.010;2022-12-10T07:02:52;2.40;99.90
5280;DHT22;2663;53.588;10.010;2022-12-10T07:05:19;2.50;99.90
5280;DHT22;2663;53.588;10.010;2022-12-10T07:07:45;2.40;99.90
5280;DHT22;2663;53.588;10.010;2022-12-10T07:10:12;2.50;99.90
5280;DHT22;2663;53.588;10.010;2022-12-10T07:12:38;2.50;99.90
5280;DHT22;2663;53.588;10.010;2022-12-10T07:15:06;2.40;99.90
5280;DHT22;2663;53.588;10.010;2022-12-10T07:17:33;2.40;99.90
5280;DHT22;2663;53.588;10.010;2022-12-10T07:19:59;2.50;99.90
5280;DHT22;2663;53.588;10.010;2022-12-10T07:22:26;2.30;99.90
5280;DHT22;2663;53.588;10.010;2022-12-10T07:24:52;2.30;99.90
5280;DHT22;2663;53.588;10.010;2022-12-10T07:27:19;2.30;99.90
5280;DHT22;2663;53.588;10.010;2022-12-10T07:29:46;2.40;99.90
5280;DHT22;2663;53.588;10.010;2022-12-10T07:32:12;2.40;99.90
5280;DHT22;2663;53.588;10.010;2022-12-10T07:34:39;2.40;99.90
5280;DHT22;2663;53.588;10.010;2022-12-10T07:37:06;2.30;99.90
5280;DHT22;2663;53.588;10.010;2022-12-10T07:39:33;2.30;99.90
5280;DHT22;2663;53.588;10.010;2022-12-10T07:42:00;2.40;99.90
5280;DHT22;2663;53.588;10.010;2022-12-10T07:44:26;2.40;99.90
5280;DHT22;2663;53.588;10.010;2022-12-10T07:46:54;2.40;99.90
5280;DHT22;2663;53.588;10.010;2022-12-10T07:49:21;2.20;99.90
5280;DHT22;2663;53.588;10.010;2022-12-10T07:51:49;2.20;99.90
5280;DHT22;2663;53.588;10.010;2022-12-10T07:54:17;2.30;99.90
5280;DHT22;2663;53.588;10.010;2022-12-10T07:56:44;2.30;99.90
5280;DHT22;2663;53.588;10.010;2022-12-10T07:59:11;2.30;99.90
5280;DHT22;2663;53.588;10.010;2022-12-10T08:01:37;2.20;99.90
5280;DHT22;2663;53.588;10.010;2022-12-10T08:04:04;2.20;99.90
5280;DHT22;2663;53.588;10.010;2022-12-10T08:06:31;2.60;99.90
5280;DHT22;2663;53.588;10.010;2022-12-10T08:08:59;3.00;99.90
5280;DHT22;2663;53.588;10.010;2022-12-10T08:11:26;3.80;99.90
5280;DHT22;2663;53.588;10.010;2022-12-10T08:13:53;4.70;99.90
5280;DHT22;2663;53.588;10.010;2022-12-10T08:16:25;4.00;99.90
5280;DHT22;2663;53.588;10.010;2022-12-10T08:18:57;3.20;99.90
5280;DHT22;2663;53.588;10.010;2022-12-10T08:21:26;3.20;99.90
5280;DHT22;2663;53.588;10.010;2022-12-10T08:23:54;2.80;99.90
5280;DHT22;2663;53.588;10.010;2022-12-10T08:26:23;2.70;99.90
5280;DHT22;2663;53.588;10.010;2022-12-10T08:28:51;2.60;99.90
5280;DHT22;2663;53.588;10.010;2022-12-10T08:31:20;2.50;99.90
5280;DHT22;2663;53.588;10.010;2022-12-10T08:33:47;2.40;99.90
5280;DHT22;2663;53.588;10.010;2022-12-10T08:36:15;2.30;99.90
5280;DHT22;2663;53.588;10.010;2022-12-10T08:38:43;2.30;99.90
5280;DHT22;2663;53.588;10.010;2022-12-10T08:41:20;2.40;99.90
5280;DHT22;2663;53.588;10.010;2022-12-10T08:43:48;2.40;99.90
5280;DHT22;2663;53.588;10.010;2022-12-10T08:46:17;3.20;99.90
5280;DHT22;2663;53.588;10.010;2022-12-10T08:48:44;2.40;99.90
5280;DHT22;2663;53.588;10.010;2022-12-10T08:51:14;2.50;99.90
5280;DHT22;2663;53.588;10.010;2022-12-10T08:53:41;2.80;99.90
5280;DHT22;2663;53.588;10.010;2022-12-10T08:56:08;2.70;99.90
5280;DHT22;2663;53.588;10.010;2022-12-10T08:58:36;2.60;99.90
5280;DHT22;2663;53.588;10.010;2022-12-10T09:01:11;2.40;99.90
5280;DHT22;2663;53.588;10.010;2022-12-10T09:03:38;3.00;99.90
5280;DHT22;2663;53.588;10.010;2022-12-10T09:06:10;2.30;99.90
5280;DHT22;2663;53.588;10.010;2022-12-10T09:08:37;2.30;99.90
5280;DHT22;2663;53.588;10.010;2022-12-10T09:11:06;2.40;99.90
5280;DHT22;2663;53.588;10.010;2022-12-10T09:13:33;2.30;99.90
5280;DHT22;2663;53.588;10.010;2022-12-10T09:16:00;2.20;99.90
5280;DHT22;2663;53.588;10.010;2022-12-10T09:18:27;2.10;99.90
5280;DHT22;2663;53.588;10.010;2022-12-10T09:20:53;2.10;99.90
5280;DHT22;2663;53.588;10.010;2022-12-10T09:23:20;2.10;99.90
5280;DHT22;2663;53.588;10.010;2022-12-10T09:25:47;2.10;99.90
5280;DHT22;2663;53.588;10.010;2022-12-10T09:28:14;2.10;99.90
5280;DHT22;2663;53.588;10.010;2022-12-10T09:30:41;2.20;99.90
5280;DHT22;2663;53.588;10.010;2022-12-10T09:33:08;2.10;99.90
5280;DHT22;2663;53.588;10.010;2022-12-10T09:35:38;2.20;99.90
5280;DHT22;2663;53.588;10.010;2022-12-10T09:38:05;1.70;99.90
5280;DHT22;2663;53.588;10.010;2022-12-10T09:40:40;2.20;99.90
5280;DHT22;2663;53.588;10.010;2022-12-10T09:43:19;2.20;99.90
5280;DHT22;2663;53.588;10.010;2022-12-10T09:45:52;2.10;99.90
5280;DHT22;2663;53.588;10.010;2022-12-10T09:51:29;2.20;99.90
5280;DHT22;2663;53.588;10.010;2022-12-10T09:53:57;2.30;99.90
5280;DHT22;2663;53.588;10.010;2022-12-10T09:56:32;2.20;99.90
5280;DHT22;2663;53.588;10.010;2022-12-10T09:59:03;2.10;99.90
5280;DHT22;2663;53.588;10.010;2022-12-10T10:01:33;2.20;99.90
5280;DHT22;2663;53.588;10.010;2022-12-10T10:04:03;2.10;99.90
5280;DHT22;2663;53.588;10.010;2022-12-10T10:06:30;2.10;99.90
5280;DHT22;2663;53.588;10.010;2022-12-10T10:08:59;2.30;99.90
5280;DHT22;2663;53.588;10.010;2022-12-10T10:11:30;2.40;99.90
5280;DHT22;2663;53.588;10.010;2022-12-10T10:14:08;2.40;99.90
5280;DHT22;2663;53.588;10.010;2022-12-10T10:16:48;2.40;99.90
5280;DHT22;2663;53.588;10.010;2022-12-10T10:19:19;2.50;99.90
5280;DHT22;2663;53.588;10.010;2022-12-10T10:21:49;2.40;99.90
5280;DHT22;2663;53.588;10.010;2022-12-10T10:24:19;2.20;99.90
5280;DHT22;2663;53.588;10.010;2022-12-10T10:26:48;2.30;99.90
5280;DHT22;2663;53.588;10.010;2022-12-10T10:29:19;3.10;99.90
5280;DHT22;2663;53.588;10.010;2022-12-10T10:31:47;2.30;99.90
5280;DHT22;2663;53.588;10.010;2022-12-10T10:34:19;2.50;99.90
5280;DHT22;2663;53.588;10.010;2022-12-10T10:36:56;3.00;99.90
5280;DHT22;2663;53.588;10.010;2022-12-10T10:39:27;3.50;99.90
5280;DHT22;2663;53.588;10.010;2022-12-10T10:41:56;3.20;99.90
5280;DHT22;2663;53.588;10.010;2022-12-10T10:44:27;2.90;99.90
5280;DHT22;2663;53.588;10.010;2022-12-10T10:46:55;2.60;99.90
5280;DHT22;2663;53.588;10.010;2022-12-10T10:49:28;2.40;99.90
5280;DHT22;2663;53.588;10.010;2022-12-10T10:52:06;2.40;99.90
5280;DHT22;2663;53.588;10.010;2022-12-10T10:54:40;2.50;99.90
5280;DHT22;2663;53.588;10.010;2022-12-10T10:57:35;2.40;99.90
5280;DHT22;2663;53.588;10.010;2022-12-10T11:00:18;2.20;99.90
5280;DHT22;2663;53.588;10.010;2022-12-10T11:02:45;2.20;99.90
5280;DHT22;2663;53.588;10.010;2022-12-10T11:05:26;2.20;99.90
5280;DHT22;2663;53.588;10.010;2022-12-10T11:08:03;2.30;99.90
5280;DHT22;2663;53.588;10.010;2022-12-10T11:10:31;2.40;99.90
5280;DHT22;2663;53.588;10.010;2022-12-10T11:13:23;2.50;99.90
5280;DHT22;2663;53.588;10.010;2022-12-10T11:15:59;2.50;99.90
5280;DHT22;2663;53.588;10.010;2022-12-10T11:21:18;2.40;99.90
5280;DHT22;2663;53.588;10.010;2022-12-10T11:23:47;2.30;99.90
5280;DHT22;2663;53.588;10.010;2022-12-10T11:27:01;2.00;99.90
5280;DHT22;2663;53.588;10.010;2022-12-10T11:32:28;2.20;99.90
5280;DHT22;2663;53.588;10.010;2022-12-10T11:35:12;2.20;99.90
5280;DHT22;2663;53.588;10.010;2022-12-10T11:38:03;2.30;99.90
5280;DHT22;2663;53.588;10.010;2022-12-10T11:52:16;2.30;99.90
5280;DHT22;2663;53.588;10.010;2022-12-10T11:58:09;2.60;99.90
5280;DHT22;2663;53.588;10.010;2022-12-10T12:01:18;2.60;99.90
5280;DHT22;2663;53.588;10.010;2022-12-10T12:06:42;2.60;99.90
5280;DHT22;2663;53.588;10.010;2022-12-10T12:09:30;2.50;99.90
5280;DHT22;2663;53.588;10.010;2022-12-10T12:20:53;2.80;99.90
5280;DHT22;2663;53.588;10.010;2022-12-10T12:23:32;2.60;99.90
5280;DHT22;2663;53.588;10.010;2022-12-10T12:26:24;2.60;99.90
5280;DHT22;2663;53.588;10.010;2022-12-10T12:29:21;2.60;99.90
5280;DHT22;2663;53.588;10.010;2022-12-10T12:32:27;2.60;99.90
5280;DHT22;2663;53.588;10.010;2022-12-10T12:35:02;2.50;99.90
5280;DHT22;2663;53.588;10.010;2022-12-10T12:37:58;2.50;99.90
5280;DHT22;2663;53.588;10.010;2022-12-10T12:40:30;2.50;99.90
5280;DHT22;2663;53.588;10.010;2022-12-10T12:43:23;2.60;99.90
5280;DHT22;2663;53.588;10.010;2022-12-10T12:45:52;2.60;99.90
5280;DHT22;2663;53.588;10.010;2022-12-10T12:51:19;2.70;99.90
5280;DHT22;2663;53.588;10.010;2022-12-10T12:53:47;2.70;99.90
5280;DHT22;2663;53.588;10.010;2022-12-10T13:04:57;2.70;99.90
5280;DHT22;2663;53.588;10.010;2022-12-10T13:07:34;2.70;99.90
5280;DHT22;2663;53.588;10.010;2022-12-10T13:10:25;2.60;99.90
5280;DHT22;2663;53.588;10.010;2022-12-10T13:13:07;2.60;99.90
5280;DHT22;2663;53.588;10.010;2022-12-10T13:15:43;2.60;99.90
5280;DHT22;2663;53.588;10.010;2022-12-10T13:31:33;2.40;99.90
5280;DHT22;2663;53.588;10.010;2022-12-10T13:36:37;2.30;99.90
5280;DHT22;2663;53.588;10.010;2022-12-10T13:39:33;2.50;99.90
5280;DHT22;2663;53.588;10.010;2022-12-10T13:53:19;2.40;99.90
5280;DHT22;2663;53.588;10.010;2022-12-10T13:59:03;2.40;99.90
5280;DHT22;2663;53.588;10.010;2022-12-10T14:05:04;2.30;99.90
5280;DHT22;2663;53.588;10.010;2022-12-10T14:07:35;2.30;99.90
5280;DHT22;2663;53.588;10.010;2022-12-10T14:10:03;2.30;99.90
5280;DHT22;2663;53.588;10.010;2022-12-10T14:12:33;2.40;99.90
5280;DHT22;2663;53.588;10.010;2022-12-10T14:15:05;2.40;99.90
5280;DHT22;2663;53.588;10.010;2022-12-10T14:17:38;2.30;99.90
5280;DHT22;2663;53.588;10.010;2022-12-10T14:20:07;2.20;99.90
5280;DHT22;2663;53.588;10.010;2022-12-10T14:22:38;2.20;99.90
5280;DHT22;2663;53.588;10.010;2022-12-10T14:25:15;2.20;99.90
5280;DHT22;2663;53.588;10.010;2022-12-10T14:27:42;2.20;99.90
5280;DHT22;2663;53.588;10.010;2022-12-10T14:30:24;2.10;99.90
5280;DHT22;2663;53.588;10.010;2022-12-10T14:32:58;2.10;99.90
5280;DHT22;2663;53.588;10.010;2022-12-10T14:35:27;2.10;99.90
5280;DHT22;2663;53.588;10.010;2022-12-10T14:37:58;2.10;99.90
5280;DHT22;2663;53.588;10.010;2022-12-10T14:40:28;1.40;99.90
5280;DHT22;2663;53.588;10.010;2022-12-10T14:43:06;2.10;99.90
5280;DHT22;2663;53.588;10.010;2022-12-10T14:45:49;2.10;99.90
5280;DHT22;2663;53.588;10.010;2022-12-10T14:48:18;2.00;99.90
5280;DHT22;2663;53.588;10.010;2022-12-10T14:50:46;2.10;99.90
5280;DHT22;2663;53.588;10.010;2022-12-10T14:53:24;2.00;99.90
5280;DHT22;2663;53.588;10.010;2022-12-10T14:55:59;2.10;99.90
5280;DHT22;2663;53.588;10.010;2022-12-10T14:58:29;2.10;99.90
5280;DHT22;2663;53.588;10.010;2022-12-10T15:01:04;2.10;99.90
5280;DHT22;2663;53.588;10.010;2022-12-10T15:03:39;2.00;99.90
5280;DHT22;2663;53.588;10.010;2022-12-10T15:06:09;2.00;99.90
5280;DHT22;2663;53.588;10.010;2022-12-10T15:08:37;2.00;99.90
5280;DHT22;2663;53.588;10.010;2022-12-10T15:11:04;2.10;99.90
5280;DHT22;2663;53.588;10.010;2022-12-10T15:13:42;2.20;99.90
5280;DHT22;2663;53.588;10.010;2022-12-10T15:16:39;2.30;99.90
5280;DHT22;2663;53.588;10.010;2022-12-10T15:19:21;2.30;99.90
5280;DHT22;2663;53.588;10.010;2022-12-10T15:21:51;2.40;99.90
5280;DHT22;2663;53.588;10.010;2022-12-10T15:24:41;2.40;99.90
5280;DHT22;2663;53.588;10.010;2022-12-10T15:27:16;2.20;99.90
5280;DHT22;2663;53.588;10.010;2022-12-10T15:29:43;2.20;99.90
5280;DHT22;2663;53.588;10.010;2022-12-10T15:32:22;2.20;99.90
5280;DHT22;2663;53.588;10.010;2022-12-10T15:34:55;2.10;99.90
5280;DHT22;2663;53.588;10.010;2022-12-10T15:37:33;2.00;99.90
5280;DHT22;2663;53.588;10.010;2022-12-10T15:40:03;2.00;99.90
5280;DHT22;2663;53.588;10.010;2022-12-10T15:42:42;1.90;99.90
5280;DHT22;2663;53.588;10.010;2022-12-10T15:45:41;2.00;99.90
5280;DHT22;2663;53.588;10.010;2022-12-10T15:48:11;2.10;99.90
5280;DHT22;2663;53.588;10.010;2022-12-10T15:50:40;3.20;99.90
5280;DHT22;2663;53.588;10.010;2022-12-10T15:53:12;2.30;99.90
5280;DHT22;2663;53.588;10.010;2022-12-10T15:55:39;2.20;99.90
5280;DHT22;2663;53.588;10.010;2022-12-10T15:58:13;2.10;99.90
5280;DHT22;2663;53.588;10.010;2022-12-10T16:00:40;2.10;99.90
5280;DHT22;2663;53.588;10.010;2022-12-10T16:03:15;2.00;99.90
5280;DHT22;2663;53.588;10.010;2022-12-10T16:05:42;1.80;99.90
5280;DHT22;2663;53.588;10.010;2022-12-10T16:08:19;1.80;99.90
5280;DHT22;2663;53.588;10.010;2022-12-10T16:10:49;1.80;99.90
5280;DHT22;2663;53.588;10.010;2022-12-10T16:13:34;1.80;99.90
5280;DHT22;2663;53.588;10.010;2022-12-10T16:16:08;1.80;99.90
5280;DHT22;2663;53.588;10.010;2022-12-10T16:18:35;1.80;99.90
5280;DHT22;2663;53.588;10.010;2022-12-10T16:21:07;1.60;99.90
5280;DHT22;2663;53.588;10.010;2022-12-10T16:23:35;1.60;99.90
5280;DHT22;2663;53.588;10.010;2022-12-10T16:26:01;1.70;99.90
5280;DHT22;2663;53.588;10.010;2022-12-10T16:28:28;1.60;99.90
5280;DHT22;2663;53.588;10.010;2022-12-10T16:30:57;1.60;99.90
5280;DHT22;2663;53.588;10.010;2022-12-10T16:33:26;1.60;99.90
5280;DHT22;2663;53.588;10.010;2022-12-10T16:35:53;1.70;99.90
5280;DHT22;2663;53.588;10.010;2022-12-10T16:38:20;1.70;99.90
5280;DHT22;2663;53.588;10.010;2022-12-10T16:40:47;1.80;99.90
5280;DHT22;2663;53.588;10.010;2022-12-10T16:43:17;1.70;99.90
5280;DHT22;2663;53.588;10.010;2022-12-10T16:45:45;1.60;99.90
5280;DHT22;2663;53.588;10.010;2022-12-10T16:48:12;1.60;99.90
5280;DHT22;2663;53.588;10.010;2022-12-10T16:50:39;1.60;99.90
5280;DHT22;2663;53.588;10.010;2022-12-10T16:53:21;1.50;99.90
5280;DHT22;2663;53.588;10.010;2022-12-10T16:55:49;1.50;99.90
5280;DHT22;2663;53.588;10.010;2022-12-10T16:58:16;1.50;99.90
5280;DHT22;2663;53.588;10.010;2022-12-10T17:00:51;1.60;99.90
5280;DHT22;2663;53.588;10.010;2022-12-10T17:03:21;1.70;99.90
5280;DHT22;2663;53.588;10.010;2022-12-10T17:05:55;1.70;99.90
5280;DHT22;2663;53.588;10.010;2022-12-10T17:08:23;1.80;99.90
5280;DHT22;2663;53.588;10.010;2022-12-10T17:10:50;1.90;99.90
5280;DHT22;2663;53.588;10.010;2022-12-10T17:13:36;2.00;99.90
5280;DHT22;2663;53.588;10.010;2022-12-10T17:16:04;2.00;99.90
5280;DHT22;2663;53.588;10.010;2022-12-10T17:18:33;2.00;99.90
5280;DHT22;2663;53.588;10.010;2022-12-10T17:21:00;2.10;99.90
5280;DHT22;2663;53.588;10.010;2022-12-10T17:23:26;2.00;99.90
5280;DHT22;2663;53.588;10.010;2022-12-10T17:25:53;2.00;99.90
5280;DHT22;2663;53.588;10.010;2022-12-10T17:28:21;1.90;99.90
5280;DHT22;2663;53.588;10.010;2022-12-10T17:30:49;1.80;99.90
5280;DHT22;2663;53.588;10.010;2022-12-10T17:33:19;1.50;99.90
5280;DHT22;2663;53.588;10.010;2022-12-10T17:35:47;1.50;99.90
5280;DHT22;2663;53.588;10.010;2022-12-10T17:38:15;1.40;99.90
5280;DHT22;2663;53.588;10.010;2022-12-10T17:40:43;1.10;99.90
5280;DHT22;2663;53.588;10.010;2022-12-10T17:43:10;1.20;99.90
5280;DHT22;2663;53.588;10.010;2022-12-10T17:45:38;1.20;99.90
5280;DHT22;2663;53.588;10.010;2022-12-10T17:48:05;2.40;99.90
5280;DHT22;2663;53.588;10.010;2022-12-10T17:50:34;2.60;99.90
5280;DHT22;2663;53.588;10.010;2022-12-10T17:53:03;2.10;99.90
5280;DHT22;2663;53.588;10.010;2022-12-10T17:55:30;1.90;99.90
5280;DHT22;2663;53.588;10.010;2022-12-10T17:57:57;1.50;99.90
5280;DHT22;2663;53.588;10.010;2022-12-10T18:00:27;1.40;99.90